WMKP/PEN METAR and TAF weather

Enter ICAO airport designator
Station Type Date Time Source
WMKP METAR 2019/09/20 20:30 UTC NOAA

WMKP 202030Z VRB02KT 5000 HZ FEW025 SCT140 BKN270 26/24 Q1008 NOSIG


Station Type Date Time Source
WMKP Decoded METAR 2019/09/20 20:30 UTC NOAA

Penang / Bayan Lepas, Malaysia (WMKP) 05-18N 100-16E 4M
Sep 20, 2019 - 04:30 PM EDT / 2019.09.20 2030 UTC
Wind: Variable at 2 MPH (2 KT):0
Visibility: 3 mile(s):0
Sky conditions: mostly cloudy
Weather: haze
Temperature: 78 F (26 C)
Dew Point: 75 F (24 C)
Relative Humidity: 88%
Pressure (altimeter): 29.77 in. Hg (1008 hPa)
ob: WMKP 202030Z VRB02KT 5000 HZ FEW025 SCT140 BKN270 26/24 Q1008 NOSIG
cycle: 20

Station Type Date Time Source
WMKP TAF 2019/09/20 18:09 UTC NOAA

TAF WMKP 201700Z 2018/2118 VRB03KT 4000 HZ FEW025
TEMPO 2020/2100 2000 TSRA HZ FEW010 FEW017CB
BECMG 2104/2106 23007KT 5000 FEW020
BECMG 2110/2112 VRB03KT FEW025

Example: see airport list